Time;durP1;ratioP1;P1;durP2;ratioP2;P2;SDS_P1;SDS_P2;PMS_P1;PMS_P2;Temp;Humidity;BMP_temperature;BMP_pressure;BME280_temperature;BME280_humidity;BME280_pressure;Samples;Min_cycle;Max_cycle;Signal;HPM_P1;HPM_P2
2021/05/31 00:00:24;;;;;;;10.57;7.23;;;;;;;;;;5118640;28;20926;-71
2021/05/31 00:02:51;;;;;;;12.53;8.47;;;;;;;;;;5120262;28;20458;-71
2021/05/31 00:05:22;;;;;;;14.27;9.93;;;;;;;;;;5118610;28;20802;-71
2021/05/31 00:07:50;;;;;;;15.20;8.60;;;;;;;;;;5116681;28;20457;-71
2021/05/31 00:10:19;;;;;;;14.93;9.47;;;;;;;;;;5118129;28;20501;-71
2021/05/31 00:12:47;;;;;;;14.07;10.17;;;;;;;;;;5117472;28;20716;-71
2021/05/31 00:15:14;;;;;;;19.17;9.63;;;;;;;;;;5117758;28;20466;-71
2021/05/31 00:17:42;;;;;;;16.23;10.10;;;;;;;;;;5117943;28;20530;-71
2021/05/31 00:20:12;;;;;;;16.70;11.50;;;;;;;;;;5117336;28;20486;-71
2021/05/31 00:22:41;;;;;;;14.90;10.77;;;;;;;;;;5117459;28;21013;-71
2021/05/31 00:25:09;;;;;;;14.70;9.90;;;;;;;;;;5117239;28;20463;-71
2021/05/31 00:27:39;;;;;;;18.27;11.73;;;;;;;;;;5117775;28;20719;-71
2021/05/31 00:30:07;;;;;;;14.63;9.90;;;;;;;;;;5117361;28;20510;-71
2021/05/31 00:32:35;;;;;;;15.53;9.60;;;;;;;;;;5118595;28;20449;-71
2021/05/31 00:35:02;;;;;;;13.23;9.50;;;;;;;;;;5117491;28;20451;-71
2021/05/31 00:37:30;;;;;;;18.60;10.37;;;;;;;;;;5117665;28;20878;-75
2021/05/31 00:39:58;;;;;;;15.57;9.87;;;;;;;;;;5117644;28;20560;-71
2021/05/31 00:42:26;;;;;;;17.67;10.80;;;;;;;;;;5117743;28;20454;-71
2021/05/31 00:44:58;;;;;;;16.13;11.47;;;;;;;;;;5117280;28;20461;-71
2021/05/31 00:47:25;;;;;;;13.33;8.57;;;;;;;;;;5116941;28;20573;-71
2021/05/31 00:49:54;;;;;;;17.80;10.80;;;;;;;;;;5117431;28;20458;-71
2021/05/31 00:52:22;;;;;;;12.80;9.67;;;;;;;;;;5117364;28;20458;-71
2021/05/31 00:54:52;;;;;;;15.43;11.20;;;;;;;;;;5117091;28;20810;-71
2021/05/31 00:57:20;;;;;;;15.10;10.90;;;;;;;;;;5117219;28;20547;-71
2021/05/31 00:59:47;;;;;;;14.97;10.20;;;;;;;;;;5116983;28;20462;-71
2021/05/31 01:02:16;;;;;;;12.97;9.60;;;;;;;;;;5117330;28;20447;-72
2021/05/31 01:05:04;;;;;;;12.60;9.77;;;;;;;;;;5116808;28;20790;-72
2021/05/31 01:07:36;;;;;;;11.70;9.40;;;;;;;;;;5116571;28;20490;-71
2021/05/31 01:10:06;;;;;;;14.60;10.03;;;;;;;;;;5116746;28;20880;-71
2021/05/31 01:12:37;;;;;;;17.43;10.50;;;;;;;;;;5117006;28;20454;-71
2021/05/31 01:15:09;;;;;;;13.37;9.90;;;;;;;;;;5116349;28;20715;-72
2021/05/31 01:17:44;;;;;;;13.90;9.80;;;;;;;;;;5116956;28;20439;-71
2021/05/31 01:20:27;;;;;;;15.10;9.43;;;;;;;;;;5122052;28;20453;-72
2021/05/31 01:23:02;;;;;;;13.40;9.40;;;;;;;;;;5123922;28;20854;-72
2021/05/31 01:25:34;;;;;;;15.77;9.33;;;;;;;;;;5122878;27;20530;-71
2021/05/31 01:28:26;;;;;;;14.03;8.33;;;;;;;;;;5123671;27;20842;-71
2021/05/31 01:30:57;;;;;;;16.67;10.00;;;;;;;;;;5123552;27;20453;-72
2021/05/31 01:33:27;;;;;;;15.40;9.03;;;;;;;;;;5123954;27;20447;-71
2021/05/31 01:35:56;;;;;;;12.00;9.47;;;;;;;;;;5119446;27;20751;-71
2021/05/31 01:38:24;;;;;;;19.10;9.63;;;;;;;;;;5103699;28;20577;-71
2021/05/31 01:40:55;;;;;;;17.03;9.77;;;;;;;;;;5103445;28;20787;-72
2021/05/31 01:43:23;;;;;;;12.83;8.63;;;;;;;;;;5102865;28;20452;-72
2021/05/31 01:45:53;;;;;;;12.53;9.13;;;;;;;;;;5102799;28;20498;-72
2021/05/31 01:48:23;;;;;;;12.57;8.67;;;;;;;;;;5103054;28;21045;-71
2021/05/31 01:50:52;;;;;;;10.27;8.37;;;;;;;;;;5102865;28;20735;-71
2021/05/31 01:53:19;;;;;;;12.23;8.67;;;;;;;;;;5103527;28;20447;-71
2021/05/31 01:55:50;;;;;;;14.30;10.97;;;;;;;;;;5102654;28;20502;-71
2021/05/31 01:58:20;;;;;;;17.30;10.23;;;;;;;;;;5102664;28;20518;-71
2021/05/31 02:00:48;;;;;;;13.27;9.13;;;;;;;;;;5102660;28;20459;-71
2021/05/31 02:03:15;;;;;;;11.13;8.37;;;;;;;;;;5113433;28;20447;-71
2021/05/31 02:05:44;;;;;;;21.03;10.23;;;;;;;;;;5123238;27;20497;-70
2021/05/31 02:08:14;;;;;;;13.30;8.80;;;;;;;;;;5123190;27;20861;-71
2021/05/31 02:10:41;;;;;;;14.43;9.27;;;;;;;;;;5122880;27;20459;-71
2021/05/31 02:13:12;;;;;;;11.60;7.80;;;;;;;;;;5123388;27;20892;-71
2021/05/31 02:15:44;;;;;;;12.93;8.60;;;;;;;;;;5123124;28;20454;-71
2021/05/31 02:18:13;;;;;;;12.20;8.93;;;;;;;;;;5123325;27;20451;-72
2021/05/31 02:20:42;;;;;;;11.60;9.50;;;;;;;;;;5123505;27;20616;-71
2021/05/31 02:23:13;;;;;;;12.73;8.93;;;;;;;;;;5123326;27;20839;-71
2021/05/31 02:25:41;;;;;;;13.67;7.70;;;;;;;;;;5123008;27;20522;-71
2021/05/31 02:28:09;;;;;;;10.37;7.77;;;;;;;;;;5123024;27;20541;-71
2021/05/31 02:30:41;;;;;;;16.43;9.43;;;;;;;;;;5121255;27;20462;-71
2021/05/31 02:33:08;;;;;;;12.73;8.03;;;;;;;;;;5120006;28;20538;-71
2021/05/31 02:35:37;;;;;;;11.07;7.90;;;;;;;;;;5120329;28;20730;-71
2021/05/31 02:38:07;;;;;;;10.47;8.00;;;;;;;;;;5119850;28;20545;-71
2021/05/31 02:40:39;;;;;;;11.67;7.73;;;;;;;;;;5119826;28;20462;-71
2021/05/31 02:43:09;;;;;;;11.37;7.80;;;;;;;;;;5115590;28;20472;-71
2021/05/31 02:48:40;;;;;;;11.40;9.00;;;;;;;;;;5099016;28;20420;-71
2021/05/31 02:51:07;;;;;;;11.53;8.20;;;;;;;;;;5098899;28;20516;-71
2021/05/31 02:53:34;;;;;;;14.20;8.23;;;;;;;;;;5098740;28;20456;-72
2021/05/31 02:56:03;;;;;;;15.63;9.20;;;;;;;;;;5115370;28;20482;-71
2021/05/31 02:58:31;;;;;;;16.83;9.53;;;;;;;;;;5111762;28;20460;-71
2021/05/31 03:01:16;;;;;;;9.53;8.07;;;;;;;;;;5098995;28;20462;-71
2021/05/31 03:03:44;;;;;;;10.27;8.17;;;;;;;;;;5099244;28;20452;-72
2021/05/31 03:06:11;;;;;;;13.50;7.40;;;;;;;;;;5116715;28;20569;-71
2021/05/31 03:08:38;;;;;;;11.10;8.13;;;;;;;;;;5118417;28;20447;-71
2021/05/31 03:11:07;;;;;;;12.63;8.17;;;;;;;;;;5113987;28;20451;-71
2021/05/31 03:13:37;;;;;;;12.60;8.30;;;;;;;;;;5118115;28;20447;-71
2021/05/31 03:16:04;;;;;;;11.47;7.37;;;;;;;;;;5113156;28;20780;-71
2021/05/31 03:18:32;;;;;;;8.90;7.00;;;;;;;;;;5102329;28;20530;-71
2021/05/31 03:21:00;;;;;;;14.63;8.07;;;;;;;;;;5118771;28;20898;-71
2021/05/31 03:23:27;;;;;;;15.70;7.73;;;;;;;;;;5118967;28;20451;-71
2021/05/31 03:25:55;;;;;;;10.00;7.70;;;;;;;;;;5104402;28;20813;-71
2021/05/31 03:28:25;;;;;;;10.07;7.40;;;;;;;;;;5118476;28;20852;-71
2021/05/31 03:30:53;;;;;;;13.10;7.57;;;;;;;;;;5110237;28;20510;-71
2021/05/31 03:33:20;;;;;;;12.60;8.53;;;;;;;;;;5117215;28;20537;-71
2021/05/31 03:35:48;;;;;;;18.23;9.20;;;;;;;;;;5112823;28;20462;-71
2021/05/31 03:38:34;;;;;;;13.57;8.63;;;;;;;;;;5108943;28;20522;-69
2021/05/31 03:41:02;;;;;;;18.20;7.97;;;;;;;;;;5115626;28;20458;-72
2021/05/31 03:43:34;;;;;;;11.23;7.80;;;;;;;;;;5116326;28;20478;-71
2021/05/31 03:46:02;;;;;;;11.13;8.70;;;;;;;;;;5102229;28;20499;-71
2021/05/31 03:48:31;;;;;;;12.97;8.90;;;;;;;;;;5097337;28;20452;-71
2021/05/31 03:51:17;;;;;;;11.90;7.87;;;;;;;;;;5097582;28;20455;-73
2021/05/31 03:53:46;;;;;;;13.10;9.43;;;;;;;;;;5098479;28;20451;-70
2021/05/31 03:56:14;;;;;;;10.77;8.57;;;;;;;;;;5107065;28;20458;-70
2021/05/31 03:58:45;;;;;;;12.13;8.30;;;;;;;;;;5098429;28;20912;-70
2021/05/31 04:01:13;;;;;;;9.30;7.57;;;;;;;;;;5097606;28;20500;-70
2021/05/31 04:03:42;;;;;;;11.97;8.13;;;;;;;;;;5096363;28;20455;-71
2021/05/31 04:06:19;;;;;;;14.80;8.40;;;;;;;;;;5097477;28;20587;-70
2021/05/31 04:11:36;;;;;;;11.43;7.80;;;;;;;;;;5096934;28;20581;-71
2021/05/31 04:14:07;;;;;;;11.70;9.30;;;;;;;;;;5097234;28;20512;-71
2021/05/31 04:16:36;;;;;;;12.40;7.87;;;;;;;;;;5112101;28;20450;-71
2021/05/31 04:19:03;;;;;;;9.83;7.60;;;;;;;;;;5099738;28;20864;-70
2021/05/31 04:21:31;;;;;;;13.20;8.60;;;;;;;;;;5097048;28;20570;-71
2021/05/31 04:24:00;;;;;;;12.07;8.27;;;;;;;;;;5097452;28;20458;-72
2021/05/31 04:26:28;;;;;;;11.13;8.30;;;;;;;;;;5097141;28;20491;-72
2021/05/31 04:28:57;;;;;;;9.33;7.87;;;;;;;;;;5110193;28;20439;-71
2021/05/31 04:31:27;;;;;;;17.03;9.40;;;;;;;;;;5102444;28;20452;-71
2021/05/31 04:33:54;;;;;;;11.47;7.90;;;;;;;;;;5096712;28;20476;-71
2021/05/31 04:36:22;;;;;;;10.80;7.50;;;;;;;;;;5096866;28;20452;-71
2021/05/31 04:38:50;;;;;;;11.50;7.43;;;;;;;;;;5096064;28;20455;-71
2021/05/31 04:41:18;;;;;;;10.53;7.53;;;;;;;;;;5095756;28;20481;-71
2021/05/31 04:43:46;;;;;;;12.90;7.83;;;;;;;;;;5094540;28;20474;-71
2021/05/31 04:46:14;;;;;;;11.80;7.33;;;;;;;;;;5095340;28;20488;-71
2021/05/31 04:48:44;;;;;;;8.90;5.93;;;;;;;;;;5093993;28;20862;-71
2021/05/31 04:51:12;;;;;;;10.00;6.70;;;;;;;;;;5094717;28;20462;-71
2021/05/31 04:53:40;;;;;;;11.40;6.57;;;;;;;;;;5095035;28;20455;-71
2021/05/31 04:56:11;;;;;;;6.40;5.67;;;;;;;;;;5094808;28;20458;-71
2021/05/31 04:58:38;;;;;;;6.70;5.40;;;;;;;;;;5095448;28;20631;-71
2021/05/31 05:01:06;;;;;;;13.63;6.27;;;;;;;;;;5095387;28;20746;-71
2021/05/31 05:03:35;;;;;;;7.50;5.30;;;;;;;;;;5094807;28;20448;-71
2021/05/31 05:06:06;;;;;;;7.77;5.27;;;;;;;;;;5095709;28;20466;-71
2021/05/31 05:08:34;;;;;;;7.13;5.80;;;;;;;;;;5094695;28;20450;-71
2021/05/31 05:11:01;;;;;;;7.70;5.10;;;;;;;;;;5094997;28;20470;-71
2021/05/31 05:13:28;;;;;;;6.90;5.30;;;;;;;;;;5094570;28;20448;-71
2021/05/31 05:16:00;;;;;;;5.87;4.67;;;;;;;;;;5091528;28;20459;-72
2021/05/31 05:18:28;;;;;;;6.33;4.70;;;;;;;;;;5094203;28;20452;-72
2021/05/31 05:20:58;;;;;;;7.50;5.33;;;;;;;;;;5094485;28;20460;-72
2021/05/31 05:23:28;;;;;;;6.53;4.50;;;;;;;;;;5093396;28;20444;-71
2021/05/31 05:25:56;;;;;;;6.40;4.93;;;;;;;;;;5093601;28;20455;-72
2021/05/31 05:28:23;;;;;;;7.03;4.77;;;;;;;;;;5094606;28;21154;-72
2021/05/31 05:30:51;;;;;;;4.70;3.93;;;;;;;;;;5096712;28;20471;-71
2021/05/31 05:33:19;;;;;;;7.10;4.70;;;;;;;;;;5093423;28;20452;-72
2021/05/31 05:36:14;;;;;;;6.20;4.37;;;;;;;;;;5093534;28;20508;-71
2021/05/31 05:39:11;;;;;;;7.73;4.00;;;;;;;;;;5093228;28;20543;-71
2021/05/31 05:41:47;;;;;;;4.77;3.73;;;;;;;;;;5093624;28;20482;-71
2021/05/31 05:49:52;;;;;;;5.43;3.07;;;;;;;;;;5093059;28;20839;-71
2021/05/31 05:52:20;;;;;;;4.00;2.13;;;;;;;;;;5093271;28;20592;-71
2021/05/31 05:54:50;;;;;;;2.43;1.30;;;;;;;;;;5092826;28;20463;-71
2021/05/31 05:57:18;;;;;;;3.00;1.83;;;;;;;;;;5093998;28;20456;-71
2021/05/31 05:59:46;;;;;;;4.33;2.30;;;;;;;;;;5092738;28;20444;-71
2021/05/31 06:02:13;;;;;;;2.80;1.87;;;;;;;;;;5093759;28;20455;-71
2021/05/31 06:04:44;;;;;;;4.60;2.10;;;;;;;;;;5093863;28;20455;-71
2021/05/31 06:07:15;;;;;;;2.83;1.80;;;;;;;;;;5097058;28;20519;-70
2021/05/31 06:09:42;;;;;;;2.47;1.70;;;;;;;;;;5097750;28;20466;-71
2021/05/31 06:12:28;;;;;;;4.17;2.10;;;;;;;;;;5097784;28;20883;-70
2021/05/31 06:14:58;;;;;;;5.20;2.20;;;;;;;;;;5097600;28;20444;-71
2021/05/31 06:17:25;;;;;;;2.87;1.63;;;;;;;;;;5098020;28;20546;-71
2021/05/31 06:19:59;;;;;;;2.90;1.70;;;;;;;;;;5101350;28;20451;-71
2021/05/31 06:25:13;;;;;;;4.33;1.77;;;;;;;;;;5101398;28;21048;-71
2021/05/31 06:27:40;;;;;;;5.50;2.13;;;;;;;;;;5115442;28;20486;-71
2021/05/31 06:30:10;;;;;;;5.37;2.00;;;;;;;;;;5117456;28;20949;-71
2021/05/31 06:35:24;;;;;;;3.70;2.60;;;;;;;;;;5103168;28;20910;-73
2021/05/31 06:38:10;;;;;;;6.23;4.30;;;;;;;;;;5099080;28;20871;-70
2021/05/31 06:40:37;;;;;;;3.83;2.63;;;;;;;;;;5096648;28;20436;-69
2021/05/31 06:43:06;;;;;;;3.13;2.47;;;;;;;;;;5096396;28;20462;-69
2021/05/31 06:45:35;;;;;;;3.43;2.80;;;;;;;;;;5097588;28;20459;-72
2021/05/31 06:48:03;;;;;;;3.60;2.60;;;;;;;;;;5097136;28;20586;-70
2021/05/31 06:50:32;;;;;;;4.50;2.63;;;;;;;;;;5097752;28;20840;-70
2021/05/31 06:52:59;;;;;;;4.43;2.73;;;;;;;;;;5096610;28;20456;-70
2021/05/31 06:55:27;;;;;;;3.53;2.20;;;;;;;;;;5096496;28;20838;-70
2021/05/31 06:57:58;;;;;;;2.97;1.80;;;;;;;;;;5095998;28;20458;-71
2021/05/31 07:00:28;;;;;;;3.27;2.00;;;;;;;;;;5096949;28;20859;-71
2021/05/31 07:03:02;;;;;;;2.67;1.80;;;;;;;;;;5097785;28;20498;-72
2021/05/31 07:05:31;;;;;;;2.90;1.73;;;;;;;;;;5097086;28;20460;-71
2021/05/31 07:07:59;;;;;;;3.77;1.87;;;;;;;;;;5102216;28;20487;-70
2021/05/31 07:10:29;;;;;;;2.17;1.43;;;;;;;;;;5113422;28;20511;-71
2021/05/31 07:12:59;;;;;;;2.67;1.80;;;;;;;;;;5122416;27;20524;-71
2021/05/31 07:15:32;;;;;;;5.33;2.30;;;;;;;;;;5137372;27;20540;-71
2021/05/31 07:18:02;;;;;;;2.63;2.10;;;;;;;;;;5119026;27;20435;-69
2021/05/31 07:20:30;;;;;;;3.10;1.93;;;;;;;;;;5116467;28;20470;-71
2021/05/31 07:22:57;;;;;;;4.20;1.60;;;;;;;;;;5104947;28;20452;-70
2021/05/31 07:25:25;;;;;;;3.50;2.13;;;;;;;;;;5100071;28;20766;-70
2021/05/31 07:27:54;;;;;;;2.90;1.60;;;;;;;;;;5096216;28;20479;-71
2021/05/31 07:30:25;;;;;;;5.17;2.40;;;;;;;;;;5096416;28;20473;-70
2021/05/31 07:32:53;;;;;;;4.30;2.20;;;;;;;;;;5094906;28;20933;-70
2021/05/31 07:35:23;;;;;;;3.73;2.53;;;;;;;;;;5102493;28;20458;-70
2021/05/31 07:37:54;;;;;;;5.80;1.50;;;;;;;;;;5094954;28;20444;-70
2021/05/31 07:40:22;;;;;;;3.97;1.50;;;;;;;;;;5093609;28;20872;-70
2021/05/31 07:42:51;;;;;;;2.40;1.53;;;;;;;;;;5094952;28;20825;-70
2021/05/31 07:45:18;;;;;;;3.30;1.20;;;;;;;;;;5096871;28;20478;-70
2021/05/31 07:47:46;;;;;;;2.53;1.20;;;;;;;;;;5110512;27;20779;-70
2021/05/31 07:50:23;;;;;;;3.27;1.70;;;;;;;;;;5101998;28;20455;-71
2021/05/31 07:52:55;;;;;;;3.43;1.20;;;;;;;;;;5108177;28;20451;-71
2021/05/31 07:55:23;;;;;;;1.70;0.80;;;;;;;;;;5111311;28;20451;-70
2021/05/31 07:57:52;;;;;;;2.20;1.37;;;;;;;;;;5106767;28;20493;-70
2021/05/31 08:00:21;;;;;;;2.33;0.97;;;;;;;;;;5103975;28;20728;-69
2021/05/31 08:02:52;;;;;;;3.50;0.90;;;;;;;;;;5110015;28;20471;-70
2021/05/31 08:05:22;;;;;;;2.10;1.00;;;;;;;;;;5095962;28;20463;-69
2021/05/31 08:07:50;;;;;;;3.27;1.03;;;;;;;;;;5103702;28;20487;-69
2021/05/31 08:10:19;;;;;;;2.47;1.13;;;;;;;;;;5114208;28;20466;-69
2021/05/31 08:12:46;;;;;;;1.83;1.00;;;;;;;;;;5112925;28;20571;-69
2021/05/31 08:15:14;;;;;;;2.00;0.97;;;;;;;;;;5099786;28;20506;-71
2021/05/31 08:17:43;;;;;;;2.30;0.87;;;;;;;;;;5102276;28;20455;-69
2021/05/31 08:20:13;;;;;;;2.57;1.07;;;;;;;;;;5096675;28;20484;-71
2021/05/31 08:22:45;;;;;;;3.57;1.17;;;;;;;;;;5111712;28;20461;-71
2021/05/31 08:25:13;;;;;;;3.63;1.30;;;;;;;;;;5114076;28;20523;-71
2021/05/31 08:27:42;;;;;;;2.27;1.40;;;;;;;;;;5116365;27;20494;-70
2021/05/31 08:30:13;;;;;;;2.23;1.10;;;;;;;;;;5113455;28;20451;-71
2021/05/31 08:32:47;;;;;;;3.63;1.20;;;;;;;;;;5096450;28;20487;-71
2021/05/31 08:35:15;;;;;;;2.23;1.20;;;;;;;;;;5096777;28;20455;-70
2021/05/31 08:37:43;;;;;;;3.40;1.50;;;;;;;;;;5095824;28;20491;-70
2021/05/31 08:40:16;;;;;;;2.80;1.03;;;;;;;;;;5096008;28;20455;-70
2021/05/31 08:42:49;;;;;;;3.00;1.23;;;;;;;;;;5094431;28;20467;-71
2021/05/31 08:45:20;;;;;;;2.10;0.90;;;;;;;;;;5094655;28;20458;-70
2021/05/31 08:47:48;;;;;;;3.00;1.30;;;;;;;;;;5094794;28;21008;-70
2021/05/31 08:50:17;;;;;;;4.07;2.50;;;;;;;;;;5095044;28;20575;-69
2021/05/31 08:52:45;;;;;;;2.10;1.30;;;;;;;;;;5093968;28;20443;-70
2021/05/31 08:55:15;;;;;;;2.20;1.10;;;;;;;;;;5094496;28;20513;-69
2021/05/31 08:57:46;;;;;;;2.90;1.13;;;;;;;;;;5094928;28;20604;-70
2021/05/31 09:00:16;;;;;;;4.20;1.77;;;;;;;;;;5098079;28;20481;-69
2021/05/31 09:02:44;;;;;;;1.90;1.20;;;;;;;;;;5113860;28;20462;-71
2021/05/31 09:05:19;;;;;;;2.53;1.40;;;;;;;;;;5134657;27;20446;-69
2021/05/31 09:07:51;;;;;;;4.53;1.60;;;;;;;;;;5127721;27;20535;-70
2021/05/31 09:10:23;;;;;;;3.23;1.73;;;;;;;;;;5105816;28;20486;-71
2021/05/31 09:12:53;;;;;;;2.50;1.30;;;;;;;;;;5094188;28;20447;-70
2021/05/31 09:15:26;;;;;;;5.23;1.43;;;;;;;;;;5103682;28;20458;-70
2021/05/31 09:17:55;;;;;;;4.43;1.70;;;;;;;;;;5106351;28;20478;-70
2021/05/31 09:20:24;;;;;;;2.00;1.20;;;;;;;;;;5107377;28;20491;-70
2021/05/31 09:22:53;;;;;;;3.83;1.90;;;;;;;;;;5108561;28;20950;-70
2021/05/31 09:25:28;;;;;;;2.10;1.27;;;;;;;;;;5095402;28;20445;-71
2021/05/31 09:27:57;;;;;;;3.10;1.37;;;;;;;;;;5097788;28;20502;-70
2021/05/31 09:30:37;;;;;;;4.07;1.60;;;;;;;;;;5094467;28;20455;-70
2021/05/31 09:33:09;;;;;;;2.90;1.80;;;;;;;;;;5113278;28;20984;-72
2021/05/31 09:35:44;;;;;;;4.93;2.30;;;;;;;;;;5114600;28;20455;-71
2021/05/31 09:38:18;;;;;;;2.83;1.60;;;;;;;;;;5103690;28;21094;-71
2021/05/31 09:40:55;;;;;;;5.10;1.73;;;;;;;;;;5092837;28;20471;-72
2021/05/31 09:43:29;;;;;;;2.77;1.90;;;;;;;;;;5096836;28;20476;-72
2021/05/31 09:45:59;;;;;;;6.10;3.17;;;;;;;;;;5099025;28;20499;-71
2021/05/31 09:48:36;;;;;;;4.47;1.83;;;;;;;;;;5101754;28;20747;-71
2021/05/31 09:51:03;;;;;;;2.70;2.00;;;;;;;;;;5115081;28;20446;-71
2021/05/31 09:53:40;;;;;;;3.50;1.97;;;;;;;;;;5099719;28;20443;-71
2021/05/31 09:56:15;;;;;;;3.23;2.07;;;;;;;;;;5098037;28;20447;-69
2021/05/31 09:59:03;;;;;;;4.80;2.20;;;;;;;;;;5098341;28;20463;-70
2021/05/31 10:01:40;;;;;;;4.50;1.73;;;;;;;;;;5096878;28;20460;-71
2021/05/31 10:04:28;;;;;;;4.87;2.23;;;;;;;;;;5097480;28;20500;-73
2021/05/31 10:07:15;;;;;;;4.43;2.30;;;;;;;;;;5104244;28;20525;-71
2021/05/31 10:09:56;;;;;;;3.90;2.23;;;;;;;;;;5102043;28;20455;-72
2021/05/31 10:12:28;;;;;;;3.10;2.20;;;;;;;;;;5097798;28;20463;-70
2021/05/31 10:14:58;;;;;;;3.67;2.03;;;;;;;;;;5096214;28;20859;-71
2021/05/31 10:17:29;;;;;;;2.40;1.63;;;;;;;;;;5097281;28;20915;-71
2021/05/31 10:19:57;;;;;;;6.03;2.37;;;;;;;;;;5108620;28;20455;-71
2021/05/31 10:25:31;;;;;;;5.63;2.30;;;;;;;;;;5098223;28;20477;-70
2021/05/31 10:28:06;;;;;;;4.30;1.87;;;;;;;;;;5096825;28;20489;-72
2021/05/31 10:30:40;;;;;;;4.27;2.40;;;;;;;;;;5107265;28;20511;-72
2021/05/31 10:33:26;;;;;;;3.53;1.87;;;;;;;;;;5118885;28;20435;-72
2021/05/31 10:35:59;;;;;;;3.10;2.10;;;;;;;;;;5112783;28;20470;-71
2021/05/31 10:38:31;;;;;;;4.23;2.80;;;;;;;;;;5108432;27;20447;-72
2021/05/31 10:40:58;;;;;;;2.80;1.97;;;;;;;;;;5107182;28;20520;-70
2021/05/31 10:43:30;;;;;;;7.23;2.50;;;;;;;;;;5114269;28;20529;-71
2021/05/31 10:46:03;;;;;;;3.80;2.30;;;;;;;;;;5116255;28;20458;-72
2021/05/31 10:48:43;;;;;;;4.43;2.73;;;;;;;;;;5124556;27;21133;-72
2021/05/31 10:51:15;;;;;;;4.63;2.73;;;;;;;;;;5136655;27;20899;-72
2021/05/31 10:56:29;;;;;;;3.40;2.20;;;;;;;;;;5118592;27;20466;-72
2021/05/31 10:58:59;;;;;;;3.80;2.70;;;;;;;;;;5114628;28;20456;-72
2021/05/31 11:01:37;;;;;;;3.50;2.37;;;;;;;;;;5117268;28;20793;-71
2021/05/31 11:04:07;;;;;;;4.20;2.37;;;;;;;;;;5118002;28;20451;-71
2021/05/31 11:06:42;;;;;;;2.53;1.80;;;;;;;;;;5098469;28;20440;-70
2021/05/31 11:09:12;;;;;;;8.27;2.90;;;;;;;;;;5098587;28;20470;-71
2021/05/31 11:11:44;;;;;;;4.63;3.00;;;;;;;;;;5095528;28;20450;-71
2021/05/31 11:14:12;;;;;;;3.20;1.70;;;;;;;;;;5096615;28;20483;-71
2021/05/31 11:16:54;;;;;;;3.07;1.90;;;;;;;;;;5110866;28;20765;-72
2021/05/31 11:19:32;;;;;;;6.70;2.30;;;;;;;;;;5104517;28;20443;-71
2021/05/31 11:22:12;;;;;;;3.00;2.00;;;;;;;;;;5108018;28;20444;-71
2021/05/31 11:24:39;;;;;;;3.00;1.93;;;;;;;;;;5095177;28;20554;-70
2021/05/31 11:27:09;;;;;;;5.37;2.37;;;;;;;;;;5094076;28;20486;-71
2021/05/31 11:29:37;;;;;;;4.23;2.70;;;;;;;;;;5094082;28;20451;-71
2021/05/31 11:32:04;;;;;;;3.97;1.90;;;;;;;;;;5095063;28;20871;-70
2021/05/31 11:34:45;;;;;;;3.90;2.03;;;;;;;;;;5094388;28;20455;-71
2021/05/31 11:37:14;;;;;;;4.40;2.13;;;;;;;;;;5106150;28;20528;-71
2021/05/31 11:39:42;;;;;;;3.30;1.77;;;;;;;;;;5095663;28;20451;-71
2021/05/31 11:42:10;;;;;;;3.73;2.00;;;;;;;;;;5095776;28;20520;-70
2021/05/31 11:44:38;;;;;;;3.30;2.30;;;;;;;;;;5096182;28;20463;-72
2021/05/31 11:47:06;;;;;;;3.70;2.53;;;;;;;;;;5114535;27;20482;-72
2021/05/31 11:49:38;;;;;;;3.03;2.10;;;;;;;;;;5111219;28;20454;-72
2021/05/31 11:52:06;;;;;;;3.13;1.77;;;;;;;;;;5109168;27;20563;-72
2021/05/31 11:54:40;;;;;;;4.20;2.20;;;;;;;;;;5104212;28;20447;-72
2021/05/31 11:57:26;;;;;;;8.03;2.20;;;;;;;;;;5115775;28;20442;-72
2021/05/31 12:00:01;;;;;;;3.00;2.57;;;;;;;;;;5116624;28;20921;-72
2021/05/31 12:02:48;;;;;;;2.83;1.80;;;;;;;;;;5099886;28;20448;-71
2021/05/31 12:05:33;;;;;;;3.07;1.90;;;;;;;;;;5095089;28;20982;-72
2021/05/31 12:08:05;;;;;;;3.17;2.13;;;;;;;;;;5108859;28;20913;-72
2021/05/31 12:10:34;;;;;;;2.90;2.00;;;;;;;;;;5096707;28;20915;-72
2021/05/31 12:13:01;;;;;;;3.00;2.10;;;;;;;;;;5098804;28;20447;-71
2021/05/31 12:15:29;;;;;;;5.23;2.80;;;;;;;;;;5103706;27;20470;-72
2021/05/31 12:18:09;;;;;;;3.93;1.93;;;;;;;;;;5117498;28;20685;-71
2021/05/31 12:20:37;;;;;;;6.10;2.70;;;;;;;;;;5096276;28;20459;-70
2021/05/31 12:23:05;;;;;;;2.70;1.90;;;;;;;;;;5098724;28;20886;-73
2021/05/31 12:25:35;;;;;;;3.17;2.40;;;;;;;;;;5114884;28;20469;-72
2021/05/31 12:28:07;;;;;;;4.50;2.10;;;;;;;;;;5108803;28;20545;-72
2021/05/31 12:30:34;;;;;;;3.93;2.10;;;;;;;;;;5095764;28;20501;-72
2021/05/31 12:33:10;;;;;;;2.73;2.13;;;;;;;;;;5101936;28;20454;-72
2021/05/31 12:35:37;;;;;;;5.87;3.90;;;;;;;;;;5116037;28;20446;-72
2021/05/31 12:38:19;;;;;;;3.20;2.70;;;;;;;;;;5116298;28;20443;-71
2021/05/31 12:40:49;;;;;;;2.87;1.80;;;;;;;;;;5109158;28;20454;-72
2021/05/31 12:43:35;;;;;;;3.63;2.20;;;;;;;;;;5095238;28;20443;-71
2021/05/31 12:46:03;;;;;;;4.00;2.50;;;;;;;;;;5099242;28;20466;-72
2021/05/31 12:48:30;;;;;;;5.50;2.07;;;;;;;;;;5111817;28;20483;-72
2021/05/31 12:51:12;;;;;;;5.10;3.10;;;;;;;;;;5112523;28;20573;-72
2021/05/31 12:53:43;;;;;;;2.87;2.33;;;;;;;;;;5116099;28;20975;-72
2021/05/31 12:56:23;;;;;;;3.17;2.43;;;;;;;;;;5115897;28;20890;-72
2021/05/31 12:58:50;;;;;;;4.23;2.40;;;;;;;;;;5117407;28;20627;-71
2021/05/31 13:01:19;;;;;;;4.40;2.40;;;;;;;;;;5117619;28;21013;-71
2021/05/31 13:03:52;;;;;;;4.87;4.37;;;;;;;;;;5116660;28;20760;-73
2021/05/31 13:06:34;;;;;;;3.00;1.97;;;;;;;;;;5115914;28;20450;-71
2021/05/31 13:09:10;;;;;;;3.27;2.10;;;;;;;;;;5097604;28;20556;-71
2021/05/31 13:11:43;;;;;;;2.73;1.90;;;;;;;;;;5096254;28;20542;-71
2021/05/31 13:14:21;;;;;;;3.30;2.27;;;;;;;;;;5110771;28;20459;-71
2021/05/31 13:17:00;;;;;;;3.00;1.90;;;;;;;;;;5103337;28;20811;-70
2021/05/31 13:19:34;;;;;;;4.20;2.70;;;;;;;;;;5099660;28;20455;-71
2021/05/31 13:22:14;;;;;;;7.43;2.10;;;;;;;;;;5116684;28;20450;-73
2021/05/31 13:24:43;;;;;;;4.87;2.27;;;;;;;;;;5117050;28;20458;-71
2021/05/31 13:27:22;;;;;;;3.70;2.47;;;;;;;;;;5112985;28;20508;-72
2021/05/31 13:30:06;;;;;;;4.10;2.20;;;;;;;;;;5096580;28;20732;-71
2021/05/31 13:35:40;;;;;;;3.53;2.20;;;;;;;;;;5095517;28;20448;-71
2021/05/31 13:38:17;;;;;;;4.53;2.97;;;;;;;;;;5095413;28;20443;-73
2021/05/31 13:40:46;;;;;;;4.80;2.33;;;;;;;;;;5096395;28;20547;-71
2021/05/31 13:43:16;;;;;;;4.83;2.87;;;;;;;;;;5094122;28;21163;-72
2021/05/31 13:48:42;;;;;;;6.23;3.00;;;;;;;;;;5106428;28;20475;-71
2021/05/31 13:54:11;;;;;;;3.87;2.00;;;;;;;;;;5078373;28;20436;-71
2021/05/31 13:56:48;;;;;;;2.90;2.40;;;;;;;;;;5096341;28;20461;-70
2021/05/31 13:59:24;;;;;;;5.30;2.53;;;;;;;;;;5100892;28;20438;-72
2021/05/31 14:02:20;;;;;;;4.20;2.10;;;;;;;;;;5096328;28;20435;-70
2021/05/31 14:05:12;;;;;;;4.03;2.50;;;;;;;;;;5095345;28;20871;-70
2021/05/31 14:13:19;;;;;;;3.17;2.00;;;;;;;;;;5115766;28;20479;-69
2021/05/31 14:15:52;;;;;;;5.47;2.43;;;;;;;;;;5108048;28;20452;-70
2021/05/31 14:21:54;;;;;;;3.80;2.27;;;;;;;;;;5067794;28;20443;-72
2021/05/31 14:28:11;;;;;;;3.17;2.03;;;;;;;;;;5092953;28;20494;-71
2021/05/31 14:33:58;;;;;;;3.90;2.43;;;;;;;;;;5099653;28;20460;-71
2021/05/31 14:39:52;;;;;;;4.63;2.40;;;;;;;;;;5038189;28;20461;-72
2021/05/31 14:42:46;;;;;;;3.13;2.20;;;;;;;;;;5035111;28;20449;-71
2021/05/31 14:45:32;;;;;;;6.30;2.70;;;;;;;;;;5096183;28;20447;-72
2021/05/31 14:48:07;;;;;;;4.50;2.80;;;;;;;;;;5118080;28;20537;-72
2021/05/31 14:53:34;;;;;;;6.23;2.10;;;;;;;;;;5099045;28;20536;-72
2021/05/31 14:56:01;;;;;;;3.80;2.13;;;;;;;;;;5117896;28;20458;-71
2021/05/31 14:58:41;;;;;;;3.80;2.57;;;;;;;;;;5112542;28;20475;-72
2021/05/31 15:04:09;;;;;;;3.47;2.57;;;;;;;;;;5118347;28;20854;-72
2021/05/31 15:07:10;;;;;;;4.47;1.80;;;;;;;;;;5115845;28;20514;-71
2021/05/31 15:09:39;;;;;;;5.27;2.87;;;;;;;;;;5078050;28;20448;-72
2021/05/31 15:12:26;;;;;;;4.50;2.67;;;;;;;;;;5112751;28;20554;-71
2021/05/31 15:14:57;;;;;;;3.73;2.37;;;;;;;;;;5113659;28;20518;-71
2021/05/31 15:17:25;;;;;;;6.13;2.40;;;;;;;;;;5116600;28;20457;-71
2021/05/31 15:19:53;;;;;;;6.80;2.33;;;;;;;;;;5116496;28;20500;-71
2021/05/31 15:22:21;;;;;;;3.20;2.00;;;;;;;;;;5116608;28;20930;-71
2021/05/31 15:25:08;;;;;;;4.20;2.30;;;;;;;;;;5114834;28;20454;-71
2021/05/31 15:27:35;;;;;;;6.53;3.10;;;;;;;;;;5096494;28;20491;-72
2021/05/31 15:30:03;;;;;;;3.77;2.90;;;;;;;;;;5096611;28;20455;-71
2021/05/31 15:32:32;;;;;;;3.57;2.40;;;;;;;;;;5096842;28;20544;-71
2021/05/31 15:34:59;;;;;;;3.53;2.70;;;;;;;;;;5096679;28;20744;-71
2021/05/31 15:37:29;;;;;;;5.47;2.80;;;;;;;;;;5095500;28;20552;-70
2021/05/31 15:39:56;;;;;;;4.10;2.90;;;;;;;;;;5112577;28;20453;-72
2021/05/31 15:42:26;;;;;;;6.00;2.27;;;;;;;;;;5116102;28;20464;-73
2021/05/31 15:44:56;;;;;;;4.07;2.40;;;;;;;;;;5109197;28;20447;-71
2021/05/31 15:47:23;;;;;;;4.33;2.63;;;;;;;;;;5117038;27;20828;-71
2021/05/31 15:49:52;;;;;;;4.17;3.17;;;;;;;;;;5100008;28;20463;-71
2021/05/31 15:52:19;;;;;;;4.37;2.40;;;;;;;;;;5103961;28;20457;-72
2021/05/31 15:54:47;;;;;;;5.47;3.00;;;;;;;;;;5114724;28;20533;-73
2021/05/31 15:57:17;;;;;;;4.50;2.60;;;;;;;;;;5115368;28;20574;-72
2021/05/31 15:59:45;;;;;;;4.77;3.27;;;;;;;;;;5109004;28;20457;-73